createdAt,value
2023-05-15T00:01:39.335Z,7.40
2023-05-15T00:04:06.306Z,7.40
2023-05-15T00:06:33.435Z,7.40
2023-05-15T00:09:00.495Z,7.30
2023-05-15T00:11:28.229Z,7.40
2023-05-15T00:13:55.168Z,7.40
2023-05-15T00:16:22.332Z,7.40
2023-05-15T00:18:49.393Z,7.40
2023-05-15T00:21:17.146Z,7.40
2023-05-15T00:23:44.384Z,7.30
2023-05-15T00:26:11.380Z,7.30
2023-05-15T00:28:38.497Z,7.30
2023-05-15T00:31:05.533Z,7.30
2023-05-15T00:33:32.520Z,7.20
2023-05-15T00:35:59.447Z,7.20
2023-05-15T00:38:26.516Z,7.20
2023-05-15T00:40:54.269Z,7.20
2023-05-15T00:43:22.597Z,7.10
2023-05-15T00:45:51.675Z,7.10
2023-05-15T00:48:22.691Z,7.10
2023-05-15T00:50:51.865Z,7.10
2023-05-15T00:53:19.041Z,7.00
2023-05-15T00:55:47.199Z,6.90
2023-05-15T00:58:15.704Z,6.90
2023-05-15T01:00:46.596Z,6.90
2023-05-15T01:03:14.052Z,6.90
2023-05-15T01:05:41.537Z,6.80
2023-05-15T01:08:35.274Z,6.80
2023-05-15T01:11:04.722Z,6.80
2023-05-15T01:13:31.750Z,6.80
2023-05-15T01:15:59.705Z,6.80
2023-05-15T01:18:32.840Z,6.80
2023-05-15T01:21:05.440Z,6.90
2023-05-15T01:23:51.061Z,6.80
2023-05-15T01:26:56.876Z,6.80
2023-05-15T01:29:30.890Z,6.80
2023-05-15T01:32:03.161Z,6.80
2023-05-15T01:34:41.219Z,6.80
2023-05-15T01:37:11.419Z,6.70
2023-05-15T01:39:42.792Z,6.70
2023-05-15T01:42:13.761Z,6.60
2023-05-15T01:44:55.426Z,6.60
2023-05-15T01:47:28.280Z,6.50
2023-05-15T01:49:58.142Z,6.50
2023-05-15T01:52:30.897Z,6.60
2023-05-15T01:55:00.394Z,6.50
2023-05-15T01:57:28.712Z,6.40
2023-05-15T01:59:56.281Z,6.30
2023-05-15T02:02:24.103Z,6.30
2023-05-15T02:04:52.291Z,6.20
2023-05-15T02:07:20.489Z,6.10
2023-05-15T02:09:48.494Z,6.10
2023-05-15T02:12:15.854Z,6.10
2023-05-15T02:14:43.838Z,6.00
2023-05-15T02:17:10.940Z,6.00
2023-05-15T02:19:37.961Z,5.90
2023-05-15T02:22:05.144Z,5.90
2023-05-15T02:24:32.097Z,5.80
2023-05-15T02:27:13.982Z,5.80
2023-05-15T02:29:55.233Z,5.80
2023-05-15T02:32:50.737Z,5.80
2023-05-15T02:35:30.642Z,5.80
2023-05-15T02:38:01.022Z,5.70
2023-05-15T02:40:30.403Z,5.60
2023-05-15T02:42:57.913Z,5.60
2023-05-15T02:45:26.235Z,5.60
2023-05-15T02:47:54.322Z,5.60
2023-05-15T02:50:21.574Z,5.60
2023-05-15T02:52:48.578Z,5.40
2023-05-15T02:55:15.733Z,5.40
2023-05-15T02:57:42.671Z,5.40
2023-05-15T03:00:13.572Z,5.30
2023-05-15T03:02:40.582Z,5.30
2023-05-15T03:05:08.749Z,5.20
2023-05-15T03:07:35.676Z,5.20
2023-05-15T03:10:02.694Z,5.20
2023-05-15T03:12:29.869Z,5.20
2023-05-15T03:14:56.935Z,5.30
2023-05-15T03:17:24.003Z,5.30
2023-05-15T03:19:51.017Z,5.30
2023-05-15T03:22:18.028Z,5.40
2023-05-15T03:24:45.071Z,5.40
2023-05-15T03:27:11.965Z,5.40
2023-05-15T03:29:39.036Z,5.30
2023-05-15T03:32:06.224Z,5.30
2023-05-15T03:34:33.131Z,5.50
2023-05-15T03:37:00.118Z,5.60
2023-05-15T03:39:27.125Z,5.60
2023-05-15T03:41:54.031Z,5.60
2023-05-15T03:44:21.152Z,5.50
2023-05-15T03:46:48.108Z,5.50
2023-05-15T03:49:15.305Z,5.40
2023-05-15T03:51:42.612Z,5.40
2023-05-15T03:54:09.706Z,5.30
2023-05-15T03:56:36.700Z,5.30
2023-05-15T03:59:03.991Z,5.20
2023-05-15T04:01:31.053Z,5.30
2023-05-15T04:03:58.005Z,5.20
2023-05-15T04:06:25.086Z,5.20
2023-05-15T04:08:52.129Z,5.20
2023-05-15T04:11:19.203Z,5.10
2023-05-15T04:13:46.290Z,5.20
2023-05-15T04:16:13.260Z,5.10
2023-05-15T04:18:40.322Z,5.20
2023-05-15T04:21:07.398Z,5.20
2023-05-15T04:23:34.413Z,5.10
2023-05-15T04:26:01.514Z,5.20
2023-05-15T04:28:29.931Z,5.20
2023-05-15T04:30:58.836Z,5.30
2023-05-15T04:33:26.029Z,5.20
2023-05-15T04:35:53.398Z,5.20
2023-05-15T04:38:20.376Z,5.30
2023-05-15T04:40:47.347Z,5.20
2023-05-15T04:43:14.326Z,5.30
2023-05-15T04:45:41.691Z,5.30
2023-05-15T04:48:08.682Z,5.30
2023-05-15T04:50:36.904Z,5.30
2023-05-15T04:53:03.991Z,5.40
2023-05-15T04:55:33.599Z,5.40
2023-05-15T04:58:00.767Z,5.40
2023-05-15T05:00:29.314Z,5.50
2023-05-15T05:02:56.312Z,5.50
2023-05-15T05:05:23.930Z,5.50
2023-05-15T05:07:52.172Z,5.60
2023-05-15T05:10:19.212Z,5.60
2023-05-15T05:12:46.284Z,5.70
2023-05-15T05:15:13.316Z,5.70
2023-05-15T05:17:40.256Z,5.80
2023-05-15T05:20:12.866Z,5.80
2023-05-15T05:22:40.932Z,5.80
2023-05-15T05:25:08.303Z,5.90
2023-05-15T05:27:35.393Z,5.90
2023-05-15T05:30:02.735Z,6.00
2023-05-15T05:32:29.752Z,6.00
2023-05-15T05:34:56.693Z,6.10
2023-05-15T05:37:24.156Z,6.10
2023-05-15T05:39:51.113Z,6.10
2023-05-15T05:42:18.110Z,6.20
2023-05-15T05:44:45.318Z,6.30
2023-05-15T05:47:12.418Z,6.40
2023-05-15T05:49:40.260Z,6.40
2023-05-15T05:52:08.470Z,6.50
2023-05-15T05:54:35.741Z,6.60
2023-05-15T05:57:02.753Z,6.70
2023-05-15T05:59:30.075Z,6.80
2023-05-15T06:01:57.402Z,6.90
2023-05-15T06:04:24.606Z,7.00
2023-05-15T06:06:51.829Z,7.10
2023-05-15T06:09:19.004Z,7.20
2023-05-15T06:11:46.042Z,7.30
2023-05-15T06:14:13.014Z,7.50
2023-05-15T06:16:40.032Z,7.60
2023-05-15T06:19:08.027Z,7.60
2023-05-15T06:21:35.427Z,7.80
2023-05-15T06:24:02.454Z,7.80
2023-05-15T06:26:30.466Z,7.90
2023-05-15T06:28:57.652Z,8.10
2023-05-15T06:31:24.820Z,8.30
2023-05-15T06:33:51.841Z,8.30
2023-05-15T06:36:19.025Z,8.40
2023-05-15T06:38:46.157Z,8.60
2023-05-15T06:41:13.069Z,8.70
2023-05-15T06:43:40.080Z,8.90
2023-05-15T06:46:07.213Z,8.90
2023-05-15T06:48:34.418Z,9.20
2023-05-15T06:51:01.427Z,9.30
2023-05-15T06:53:30.066Z,9.40
2023-05-15T06:55:56.983Z,9.50
2023-05-15T06:58:24.272Z,9.30
2023-05-15T07:00:52.066Z,9.50
2023-05-15T07:03:20.513Z,9.70
2023-05-15T07:05:47.481Z,9.70
2023-05-15T07:08:14.404Z,9.90
2023-05-15T07:10:41.575Z,9.90
2023-05-15T07:13:08.529Z,9.80
2023-05-15T07:15:35.572Z,9.80
2023-05-15T07:18:02.650Z,9.80
2023-05-15T07:20:32.463Z,9.90
2023-05-15T07:23:01.607Z,10.20
2023-05-15T07:25:28.883Z,10.30
2023-05-15T07:27:56.559Z,10.30
2023-05-15T07:30:23.842Z,10.30
2023-05-15T07:32:51.118Z,10.30
2023-05-15T07:35:18.507Z,10.40
2023-05-15T07:37:46.670Z,10.60
2023-05-15T07:40:13.976Z,11.00
2023-05-15T07:42:41.020Z,11.30
2023-05-15T07:45:08.434Z,11.30
2023-05-15T07:47:36.142Z,11.30
2023-05-15T07:50:03.526Z,11.20
2023-05-15T07:52:30.753Z,11.40
2023-05-15T07:54:57.912Z,11.30
2023-05-15T07:57:26.045Z,11.40
2023-05-15T07:59:53.168Z,11.50
2023-05-15T08:02:20.186Z,11.80
2023-05-15T08:04:47.349Z,12.10
2023-05-15T08:07:14.813Z,11.80
2023-05-15T08:09:42.174Z,11.70
2023-05-15T08:12:17.864Z,11.90
2023-05-15T08:14:44.929Z,11.60
2023-05-15T08:17:12.177Z,11.30
2023-05-15T08:19:39.114Z,11.50
2023-05-15T08:22:06.283Z,11.60
2023-05-15T08:24:33.500Z,11.60
2023-05-15T08:27:00.881Z,11.70
2023-05-15T08:29:27.881Z,12.10
2023-05-15T08:31:54.999Z,11.80
2023-05-15T08:34:22.001Z,11.50
2023-05-15T08:36:49.146Z,11.10
2023-05-15T08:39:16.061Z,11.60
2023-05-15T08:42:15.376Z,11.70
2023-05-15T08:44:43.417Z,11.70
2023-05-15T08:47:10.847Z,11.40
2023-05-15T08:49:46.425Z,11.70
2023-05-15T08:52:13.365Z,11.90
2023-05-15T08:54:41.341Z,12.40
2023-05-15T08:57:10.308Z,12.60
2023-05-15T08:59:38.223Z,12.70
2023-05-15T09:02:05.637Z,13.00
2023-05-15T09:04:32.784Z,13.10
2023-05-15T09:07:01.953Z,13.10
2023-05-15T09:09:30.906Z,13.10
2023-05-15T09:12:00.145Z,13.50
2023-05-15T09:14:27.138Z,13.20
2023-05-15T09:16:54.608Z,13.50
2023-05-15T09:19:22.832Z,14.10
2023-05-15T09:21:50.091Z,13.90
2023-05-15T09:24:23.828Z,13.80
2023-05-15T09:27:06.473Z,13.50
2023-05-15T09:29:35.935Z,13.10
2023-05-15T09:32:11.473Z,12.90
2023-05-15T09:34:40.761Z,12.50
2023-05-15T09:37:10.301Z,12.40
2023-05-15T09:39:44.665Z,11.80
2023-05-15T09:42:14.104Z,12.30
2023-05-15T09:44:43.119Z,12.20
2023-05-15T09:47:14.383Z,12.90
2023-05-15T09:49:44.868Z,13.70
2023-05-15T09:52:11.948Z,13.90
2023-05-15T09:54:40.042Z,14.40
2023-05-15T09:57:12.136Z,13.90
2023-05-15T09:59:47.328Z,13.80
2023-05-15T10:02:31.370Z,14.00
2023-05-15T10:04:59.269Z,14.30
2023-05-15T10:07:31.586Z,13.70
2023-05-15T10:09:59.673Z,13.40
2023-05-15T10:12:28.493Z,12.50
2023-05-15T10:14:58.672Z,12.30
2023-05-15T10:17:28.777Z,12.40
2023-05-15T10:31:29.161Z,14.10
2023-05-15T10:37:16.738Z,15.70
2023-05-15T10:39:48.287Z,16.30
2023-05-15T10:42:17.037Z,17.10
2023-05-15T10:44:43.999Z,16.30
2023-05-15T10:47:11.552Z,15.60
2023-05-15T10:49:39.185Z,16.70
2023-05-15T10:52:10.706Z,17.20
2023-05-15T10:54:37.816Z,17.90
2023-05-15T10:57:06.882Z,18.10
2023-05-15T10:59:35.344Z,18.70
2023-05-15T11:02:30.656Z,18.70
2023-05-15T11:05:02.668Z,16.60
2023-05-15T11:07:30.003Z,15.20
2023-05-15T11:09:57.475Z,14.10
2023-05-15T11:12:24.902Z,13.30
2023-05-15T11:14:54.952Z,13.00
2023-05-15T11:17:23.898Z,13.10
2023-05-15T11:19:51.408Z,13.90
2023-05-15T11:22:30.318Z,14.60
2023-05-15T11:25:09.415Z,15.10
2023-05-15T11:27:46.880Z,14.50
2023-05-15T11:30:25.248Z,13.20
2023-05-15T11:33:04.999Z,13.40
2023-05-15T11:35:39.701Z,14.70
2023-05-15T11:38:10.643Z,15.80
2023-05-15T11:40:56.076Z,16.50
2023-05-15T11:43:33.885Z,16.00
2023-05-15T11:46:03.683Z,15.50
2023-05-15T11:48:47.947Z,16.30
2023-05-15T11:51:25.080Z,17.20
2023-05-15T11:53:55.284Z,16.50
2023-05-15T11:56:28.644Z,15.60
2023-05-15T11:58:57.223Z,15.30
2023-05-15T12:01:24.556Z,16.30
2023-05-15T12:03:52.330Z,16.60
2023-05-15T12:06:19.654Z,16.30
2023-05-15T12:08:56.541Z,16.40
2023-05-15T12:11:24.831Z,16.10
2023-05-15T12:13:54.420Z,16.50
2023-05-15T12:16:30.801Z,16.50
2023-05-15T12:18:58.096Z,16.80
2023-05-15T12:21:27.314Z,16.80
2023-05-15T12:26:26.870Z,16.50
2023-05-15T12:28:54.777Z,16.30
2023-05-15T12:31:22.297Z,15.70
2023-05-15T12:33:49.575Z,15.40
2023-05-15T12:36:21.242Z,15.40
2023-05-15T12:38:49.124Z,15.70
2023-05-15T12:41:16.671Z,16.50
2023-05-15T12:43:43.701Z,17.30
2023-05-15T12:46:14.755Z,18.10
2023-05-15T12:48:44.638Z,16.70
2023-05-15T12:51:11.663Z,15.60
2023-05-15T12:53:40.208Z,14.40
2023-05-15T12:56:09.082Z,13.80
2023-05-15T12:58:37.621Z,14.10
2023-05-15T13:01:04.959Z,14.00
2023-05-15T13:03:32.900Z,14.80
2023-05-15T13:06:02.072Z,15.80
2023-05-15T13:08:29.324Z,16.60
2023-05-15T13:10:58.102Z,17.20
2023-05-15T13:13:39.865Z,18.30
2023-05-15T13:16:08.270Z,18.50
2023-05-15T13:18:37.213Z,18.70
2023-05-15T13:21:04.612Z,19.10
2023-05-15T13:23:31.573Z,19.40
2023-05-15T13:25:58.621Z,19.30
2023-05-15T13:28:25.659Z,19.90
2023-05-15T13:30:52.617Z,20.20
2023-05-15T13:33:19.823Z,20.60
2023-05-15T13:35:46.976Z,20.90
2023-05-15T13:38:13.989Z,20.50
2023-05-15T13:40:40.930Z,19.00
2023-05-15T13:43:07.989Z,18.80
2023-05-15T13:45:35.317Z,18.70
2023-05-15T13:48:02.631Z,19.40
2023-05-15T13:50:29.830Z,17.90
2023-05-15T13:52:56.810Z,16.70
2023-05-15T13:55:25.712Z,17.60
2023-05-15T13:57:53.410Z,18.70
2023-05-15T14:00:20.984Z,19.40
2023-05-15T14:02:47.980Z,19.50
2023-05-15T14:05:16.609Z,19.70
2023-05-15T14:07:43.850Z,20.00
2023-05-15T14:10:11.314Z,18.30
2023-05-15T14:12:38.493Z,17.00
2023-05-15T14:15:06.076Z,17.50
2023-05-15T14:17:33.093Z,18.10
2023-05-15T14:20:00.231Z,18.60
2023-05-15T14:22:27.202Z,19.40
2023-05-15T14:24:54.318Z,19.70
2023-05-15T14:27:21.417Z,19.60
2023-05-15T14:29:49.470Z,18.80
2023-05-15T14:32:17.149Z,19.40
2023-05-15T14:34:44.546Z,19.30
2023-05-15T14:37:11.665Z,19.30
2023-05-15T14:39:38.813Z,19.80
2023-05-15T14:42:06.723Z,20.20
2023-05-15T14:44:34.911Z,19.40
2023-05-15T14:47:10.434Z,19.90
2023-05-15T14:49:37.980Z,19.50
2023-05-15T14:52:07.490Z,18.70
2023-05-15T14:54:35.927Z,18.00
2023-05-15T14:57:03.971Z,17.80
2023-05-15T14:59:31.296Z,17.60
2023-05-15T15:01:58.488Z,17.40
2023-05-15T15:04:26.971Z,17.70
2023-05-15T15:06:57.242Z,17.30
2023-05-15T15:09:26.382Z,17.10
2023-05-15T15:11:54.664Z,17.80
2023-05-15T15:14:21.643Z,18.00
2023-05-15T15:16:50.045Z,17.80
2023-05-15T15:19:19.875Z,17.40
2023-05-15T15:21:49.960Z,16.20
2023-05-15T15:24:16.999Z,15.70
2023-05-15T15:26:47.680Z,15.40
2023-05-15T15:29:14.932Z,15.20
2023-05-15T15:31:42.234Z,15.00
2023-05-15T15:34:10.326Z,15.30
2023-05-15T15:36:38.852Z,15.10
2023-05-15T15:39:06.675Z,15.60
2023-05-15T15:41:37.569Z,15.50
2023-05-15T15:44:04.759Z,15.60
2023-05-15T15:46:31.738Z,15.90
2023-05-15T15:48:58.690Z,16.20
2023-05-15T15:51:25.799Z,16.10
2023-05-15T15:53:52.927Z,16.30
2023-05-15T15:56:20.100Z,17.10
2023-05-15T15:58:47.091Z,16.60
2023-05-15T16:01:14.197Z,16.20
2023-05-15T16:03:41.208Z,15.80
2023-05-15T16:06:08.293Z,16.20
2023-05-15T16:08:35.248Z,16.70
2023-05-15T16:11:02.534Z,16.40
2023-05-15T16:13:29.543Z,15.80
2023-05-15T16:15:56.939Z,15.40
2023-05-15T16:18:24.089Z,15.70
2023-05-15T16:20:51.095Z,15.80
2023-05-15T16:23:18.106Z,15.90
2023-05-15T16:25:45.331Z,16.00
2023-05-15T16:28:12.402Z,16.20
2023-05-15T16:30:48.741Z,16.50
2023-05-15T16:33:18.361Z,16.50
2023-05-15T16:35:46.459Z,16.30
2023-05-15T16:38:13.968Z,15.70
2023-05-15T16:40:41.098Z,15.50
2023-05-15T16:43:08.245Z,15.10
2023-05-15T16:45:35.272Z,14.70
2023-05-15T16:48:05.326Z,14.20
2023-05-15T16:50:36.553Z,14.10
2023-05-15T17:46:00.679Z,13.40
2023-05-15T17:48:28.020Z,13.40
2023-05-15T17:50:57.054Z,13.30
2023-05-15T17:53:25.568Z,13.30
2023-05-15T17:55:53.152Z,13.20
2023-05-15T17:58:21.709Z,13.20
2023-05-15T18:03:26.081Z,12.70
2023-05-15T18:22:50.935Z,12.50
2023-05-15T18:27:59.684Z,12.00
2023-05-15T18:30:26.798Z,11.90
2023-05-15T18:32:54.174Z,11.70
2023-05-15T18:35:21.894Z,11.60
2023-05-15T18:37:49.468Z,11.60
2023-05-15T18:59:05.971Z,12.00
2023-05-15T19:01:33.335Z,12.00
2023-05-15T19:04:00.506Z,11.70
2023-05-15T19:06:27.659Z,11.50
2023-05-15T19:08:54.666Z,11.40
2023-05-15T19:11:21.728Z,11.30
2023-05-15T19:13:48.683Z,11.10
2023-05-15T19:16:16.288Z,11.10
2023-05-15T19:18:43.428Z,11.00
2023-05-15T19:21:10.856Z,10.90
2023-05-15T19:23:38.124Z,10.80
2023-05-15T19:26:07.193Z,10.70
2023-05-15T19:28:34.599Z,10.70
2023-05-15T19:31:01.621Z,10.60
2023-05-15T19:33:28.538Z,10.70
2023-05-15T19:35:55.805Z,10.70
2023-05-15T19:38:22.812Z,10.70
2023-05-15T19:40:49.818Z,10.60
2023-05-15T19:43:16.836Z,10.50
2023-05-15T19:45:44.353Z,10.40
2023-05-15T19:48:12.164Z,10.40
2023-05-15T19:50:40.123Z,10.40
2023-05-15T19:53:07.718Z,10.30
2023-05-15T19:55:34.713Z,10.30
2023-05-15T19:58:01.901Z,10.20
2023-05-15T20:00:29.130Z,10.20
2023-05-15T20:02:56.825Z,10.30
2023-05-15T20:05:23.938Z,10.30
2023-05-15T20:07:50.946Z,10.40
2023-05-15T20:10:19.251Z,10.40
2023-05-15T20:12:46.956Z,10.40
2023-05-15T20:15:15.251Z,10.40
2023-05-15T20:17:43.610Z,10.40
2023-05-15T20:20:12.487Z,10.40
2023-05-15T20:22:43.939Z,10.40
2023-05-15T20:25:11.535Z,10.30
2023-05-15T20:27:39.101Z,10.30
2023-05-15T20:30:08.297Z,10.40
2023-05-15T20:32:36.416Z,10.30
2023-05-15T20:35:03.789Z,10.20
2023-05-15T20:37:30.983Z,10.20
2023-05-15T20:39:58.454Z,10.20
2023-05-15T20:42:26.875Z,10.30
2023-05-15T20:44:54.193Z,10.30
2023-05-15T20:47:21.193Z,10.40
2023-05-15T20:49:48.250Z,10.30
2023-05-15T20:52:15.322Z,10.30
2023-05-15T20:54:42.492Z,10.30
2023-05-15T20:57:09.734Z,10.30
2023-05-15T20:59:36.807Z,10.20
2023-05-15T21:02:03.790Z,10.00
2023-05-15T21:04:31.436Z,9.90
2023-05-15T21:06:58.754Z,9.70
2023-05-15T21:09:25.848Z,9.50
2023-05-15T21:11:52.851Z,9.40
2023-05-15T21:14:20.285Z,9.40
2023-05-15T21:16:47.681Z,9.40
2023-05-15T21:19:14.793Z,9.40
2023-05-15T21:21:42.111Z,9.40
2023-05-15T21:24:09.220Z,9.20
2023-05-15T21:26:36.195Z,9.20
2023-05-15T21:29:03.188Z,9.20
2023-05-15T21:31:30.242Z,9.30
2023-05-15T21:33:57.226Z,9.30
2023-05-15T21:36:24.547Z,9.30
2023-05-15T21:38:51.555Z,9.30
2023-05-15T21:41:18.495Z,9.40
2023-05-15T21:43:45.579Z,9.40
2023-05-15T21:46:12.564Z,9.30
2023-05-15T21:48:39.529Z,9.20
2023-05-15T21:51:06.966Z,9.00
2023-05-15T21:53:33.952Z,9.00
2023-05-15T21:56:01.840Z,8.90
2023-05-15T21:58:29.198Z,8.80
2023-05-15T22:00:56.330Z,8.80
2023-05-15T22:03:23.964Z,8.80
2023-05-15T22:05:53.101Z,8.90
2023-05-15T22:08:21.275Z,8.90
2023-05-15T22:10:49.007Z,8.90
2023-05-15T22:13:18.152Z,8.90
2023-05-15T22:15:45.200Z,8.70
2023-05-15T22:18:13.520Z,8.50
2023-05-15T22:29:32.537Z,8.20
2023-05-15T22:31:59.819Z,8.10
2023-05-15T22:34:30.568Z,8.10
2023-05-15T22:36:57.739Z,8.10
2023-05-15T22:42:01.101Z,8.00
2023-05-15T22:44:28.984Z,7.90
2023-05-15T22:46:56.720Z,7.90
2023-05-15T22:49:25.793Z,7.80
2023-05-15T22:51:57.596Z,7.90
2023-05-15T22:54:24.679Z,8.00
2023-05-15T22:56:52.568Z,8.10
2023-05-15T22:59:20.251Z,8.10
2023-05-15T23:01:47.489Z,8.00
2023-05-15T23:04:15.184Z,8.00
2023-05-15T23:06:42.672Z,8.00
2023-05-15T23:09:09.977Z,8.10
2023-05-15T23:11:37.979Z,8.30
2023-05-15T23:14:05.054Z,8.50
2023-05-15T23:16:32.201Z,8.70
2023-05-15T23:18:59.277Z,8.80
2023-05-15T23:21:26.589Z,8.90
2023-05-15T23:23:53.615Z,9.00
2023-05-15T23:26:20.930Z,9.00
2023-05-15T23:28:47.888Z,9.10
2023-05-15T23:31:15.748Z,9.10
2023-05-15T23:33:42.787Z,9.20
2023-05-15T23:38:45.783Z,9.20
2023-05-15T23:41:12.956Z,9.30
